Time;durP1;ratioP1;P1;durP2;ratioP2;P2;SDS_P1;SDS_P2;PMS_P1;PMS_P2;Temp;Humidity;BMP_temperature;BMP_pressure;BME280_temperature;BME280_humidity;BME280_pressure;Samples;Min_cycle;Max_cycle;Signal;HPM_P1;HPM_P2
2023/10/25 11:14:48;;;;;;;27.92;5.97;;;;;;;;;;5044426;27;20900;-72
2023/10/25 15:49:05;;;;;;;7.05;2.78;;;;;;;;;;4673831;27;20405;-59
2023/10/25 15:58:28;;;;;;;16.02;4.07;;;;;;;;;;4667847;27;20450;-79
2023/10/25 16:00:53;;;;;;;15.88;4.00;;;;;;;;;;5010739;28;20041;-78
2023/10/25 16:03:19;;;;;;;12.52;3.42;;;;;;;;;;5037327;28;20083;-80
2023/10/25 16:07:48;;;;;;;13.57;4.20;;;;;;;;;;4778680;27;20941;-82
2023/10/25 16:10:13;;;;;;;15.55;3.67;;;;;;;;;;4999527;28;20040;-84
2023/10/25 16:12:39;;;;;;;15.60;3.20;;;;;;;;;;4960577;28;20791;-86
2023/10/25 16:15:05;;;;;;;16.85;3.60;;;;;;;;;;4941502;28;20044;-87
2023/10/25 16:17:30;;;;;;;15.25;3.22;;;;;;;;;;4963271;28;20461;-88
2023/10/25 16:19:56;;;;;;;13.63;3.08;;;;;;;;;;4894113;28;20045;-85
2023/10/25 16:22:21;;;;;;;16.48;3.67;;;;;;;;;;5039382;28;20041;-86
2023/10/25 16:24:46;;;;;;;19.63;3.70;;;;;;;;;;5093451;28;20013;-86
2023/10/25 16:27:12;;;;;;;15.82;3.50;;;;;;;;;;5092652;28;20016;-85
2023/10/25 16:29:38;;;;;;;13.32;3.33;;;;;;;;;;5091803;28;20021;-85
2023/10/25 16:32:04;;;;;;;15.52;3.78;;;;;;;;;;5097650;28;20009;-86
2023/10/25 16:34:30;;;;;;;11.48;3.33;;;;;;;;;;5089432;28;20039;-85
2023/10/25 16:36:55;;;;;;;17.45;4.15;;;;;;;;;;5083589;28;20046;-85
2023/10/25 16:39:20;;;;;;;13.50;3.47;;;;;;;;;;5084153;28;20032;-86
2023/10/25 16:41:45;;;;;;;12.65;3.53;;;;;;;;;;5095906;28;20031;-86
2023/10/25 16:44:12;;;;;;;15.25;4.57;;;;;;;;;;5087943;28;20048;-86
2023/10/25 16:46:38;;;;;;;14.00;3.90;;;;;;;;;;5116655;28;20004;-86
2023/10/25 16:49:03;;;;;;;18.92;4.50;;;;;;;;;;5102264;28;20024;-85
2023/10/25 16:51:28;;;;;;;15.07;3.15;;;;;;;;;;5103141;28;20020;-85
2023/10/25 16:53:54;;;;;;;16.65;3.70;;;;;;;;;;5102872;28;20020;-85
2023/10/25 16:56:22;;;;;;;14.68;3.50;;;;;;;;;;5101649;28;20170;-85
2023/10/25 16:58:48;;;;;;;15.77;3.72;;;;;;;;;;5098029;28;20033;-86
2023/10/25 17:01:14;;;;;;;18.50;4.03;;;;;;;;;;5087617;28;20031;-85
2023/10/25 17:03:42;;;;;;;15.98;3.88;;;;;;;;;;5103762;28;20032;-86
2023/10/25 17:06:07;;;;;;;15.65;3.33;;;;;;;;;;5087827;28;20040;-84
2023/10/25 17:08:33;;;;;;;17.13;3.70;;;;;;;;;;5090277;28;20023;-84
2023/10/25 17:10:59;;;;;;;18.40;4.30;;;;;;;;;;5096725;28;20008;-86
2023/10/25 17:13:33;;;;;;;23.48;8.90;;;;;;;;;;5093803;28;20417;-85
2023/10/25 17:15:59;;;;;;;18.83;5.88;;;;;;;;;;5096952;28;20486;-86
2023/10/25 17:18:25;;;;;;;23.92;4.63;;;;;;;;;;5102951;28;20024;-85
2023/10/25 17:20:53;;;;;;;21.20;4.80;;;;;;;;;;5065322;28;20028;-85
2023/10/25 17:23:20;;;;;;;20.63;4.10;;;;;;;;;;5074908;28;20508;-85
2023/10/25 17:25:48;;;;;;;17.50;5.40;;;;;;;;;;5077366;28;20029;-86
2023/10/25 17:28:14;;;;;;;21.40;5.22;;;;;;;;;;5071477;28;20036;-86
2023/10/25 17:30:41;;;;;;;31.90;7.70;;;;;;;;;;5069274;28;20033;-86
2023/10/25 17:33:07;;;;;;;21.25;5.90;;;;;;;;;;5063146;28;20085;-85
2023/10/25 17:35:32;;;;;;;17.35;6.88;;;;;;;;;;5073122;28;20028;-86
2023/10/25 17:37:57;;;;;;;19.15;5.57;;;;;;;;;;5078585;28;20025;-87
2023/10/25 17:40:23;;;;;;;24.83;6.97;;;;;;;;;;5086308;28;20055;-85
2023/10/25 17:42:49;;;;;;;17.02;4.50;;;;;;;;;;5081447;28;20063;-84
2023/10/25 17:45:14;;;;;;;22.13;4.22;;;;;;;;;;5085828;28;20093;-85
2023/10/25 17:47:46;;;;;;;17.58;5.80;;;;;;;;;;5082285;28;20084;-85
2023/10/25 17:50:11;;;;;;;28.15;8.38;;;;;;;;;;5081364;28;20025;-83
2023/10/25 17:52:39;;;;;;;27.15;7.43;;;;;;;;;;5080680;28;20052;-84
2023/10/25 17:55:04;;;;;;;14.38;4.65;;;;;;;;;;5082771;28;20136;-85
2023/10/25 17:57:30;;;;;;;25.20;6.85;;;;;;;;;;5104844;28;20406;-86
2023/10/25 17:59:55;;;;;;;22.73;5.10;;;;;;;;;;5089656;28;20017;-85
2023/10/25 18:02:20;;;;;;;22.42;4.78;;;;;;;;;;5082639;28;20021;-84
2023/10/25 18:04:45;;;;;;;18.08;4.43;;;;;;;;;;5099465;28;20025;-85
2023/10/25 18:07:11;;;;;;;22.50;4.72;;;;;;;;;;5090101;28;20057;-85
2023/10/25 18:09:36;;;;;;;104.70;33.22;;;;;;;;;;5088332;28;20020;-85
2023/10/25 18:12:02;;;;;;;22.00;4.28;;;;;;;;;;5083381;28;20012;-85
2023/10/25 18:14:28;;;;;;;18.83;4.50;;;;;;;;;;5076231;28;20086;-85
2023/10/25 18:16:54;;;;;;;20.90;4.82;;;;;;;;;;5093390;28;20021;-85
2023/10/25 18:19:22;;;;;;;21.33;4.95;;;;;;;;;;5072389;28;20020;-85
2023/10/25 18:21:47;;;;;;;20.77;4.80;;;;;;;;;;5078532;28;20086;-85
2023/10/25 18:24:13;;;;;;;19.13;4.10;;;;;;;;;;5072913;28;20061;-84
2023/10/25 18:26:39;;;;;;;54.85;14.93;;;;;;;;;;5072724;28;20029;-84
2023/10/25 18:29:04;;;;;;;122.15;34.70;;;;;;;;;;5087146;28;20371;-85
2023/10/25 18:31:31;;;;;;;17.92;4.40;;;;;;;;;;5091412;28;20029;-85
2023/10/25 18:33:58;;;;;;;16.77;4.50;;;;;;;;;;5085393;28;20108;-85
2023/10/25 18:36:24;;;;;;;19.63;4.85;;;;;;;;;;5088205;28;20453;-85
2023/10/25 18:38:49;;;;;;;20.90;6.63;;;;;;;;;;5077263;28;20048;-85
2023/10/25 18:41:14;;;;;;;19.27;5.38;;;;;;;;;;5077618;28;20021;-85
2023/10/25 18:43:40;;;;;;;18.48;4.47;;;;;;;;;;5074436;28;20102;-85
2023/10/25 18:46:08;;;;;;;18.90;4.57;;;;;;;;;;5085394;28;20041;-87
2023/10/25 18:48:39;;;;;;;24.33;8.45;;;;;;;;;;5071224;28;20021;-85
2023/10/25 18:51:10;;;;;;;30.10;8.43;;;;;;;;;;5079331;28;20546;-85
2023/10/25 18:53:37;;;;;;;22.10;5.65;;;;;;;;;;5092715;28;20029;-84
2023/10/25 18:56:04;;;;;;;30.02;7.38;;;;;;;;;;5092221;28;20036;-84
2023/10/25 18:58:32;;;;;;;32.67;6.20;;;;;;;;;;5084706;28;20023;-85
2023/10/25 19:00:58;;;;;;;251.80;52.08;;;;;;;;;;5078050;28;20036;-85
2023/10/25 19:03:26;;;;;;;26.23;6.07;;;;;;;;;;5064856;28;20025;-85
2023/10/25 19:05:51;;;;;;;70.78;23.27;;;;;;;;;;5065529;28;20053;-85
2023/10/25 19:08:16;;;;;;;111.40;36.58;;;;;;;;;;5074299;28;20093;-84
2023/10/25 19:10:44;;;;;;;49.03;14.30;;;;;;;;;;5086124;28;20466;-85
2023/10/25 19:13:09;;;;;;;23.70;5.38;;;;;;;;;;5080179;28;20025;-84
2023/10/25 19:15:36;;;;;;;204.90;66.93;;;;;;;;;;5081570;28;20028;-84
2023/10/25 19:18:02;;;;;;;111.03;34.50;;;;;;;;;;5102399;28;20035;-85
2023/10/25 19:20:28;;;;;;;74.55;23.85;;;;;;;;;;5089932;28;20056;-84
2023/10/25 19:22:54;;;;;;;27.38;7.20;;;;;;;;;;5085740;28;20051;-84
2023/10/25 19:25:19;;;;;;;576.67;221.30;;;;;;;;;;5086323;28;20020;-85
2023/10/25 19:27:44;;;;;;;956.83;372.60;;;;;;;;;;5083159;28;20052;-85
2023/10/25 19:30:11;;;;;;;164.52;48.15;;;;;;;;;;5066593;28;20031;-84
2023/10/25 19:32:37;;;;;;;19.00;4.70;;;;;;;;;;5067548;28;20017;-84
2023/10/25 19:35:02;;;;;;;34.63;13.00;;;;;;;;;;5083957;28;20032;-85
2023/10/25 19:37:27;;;;;;;45.15;24.35;;;;;;;;;;5066108;28;20117;-85
2023/10/25 19:39:53;;;;;;;98.80;45.22;;;;;;;;;;5072897;28;20024;-83
2023/10/25 19:42:19;;;;;;;17.80;4.72;;;;;;;;;;5075016;28;20032;-84
2023/10/25 19:44:45;;;;;;;33.72;6.28;;;;;;;;;;5081233;28;20047;-85
2023/10/25 19:47:12;;;;;;;64.43;24.38;;;;;;;;;;5087549;28;20048;-84
2023/10/25 19:49:37;;;;;;;358.48;145.07;;;;;;;;;;5101174;28;20033;-84
2023/10/25 19:52:04;;;;;;;320.83;139.55;;;;;;;;;;5083153;28;20050;-84
2023/10/25 19:54:29;;;;;;;35.70;12.68;;;;;;;;;;5087516;28;20023;-85
2023/10/25 19:57:01;;;;;;;42.85;14.68;;;;;;;;;;5067306;28;20509;-84
2023/10/25 19:59:27;;;;;;;39.72;11.68;;;;;;;;;;5100542;28;20021;-85
2023/10/25 20:01:53;;;;;;;26.58;7.88;;;;;;;;;;5076436;28;20590;-84
2023/10/25 20:04:18;;;;;;;18.55;5.22;;;;;;;;;;5064287;28;20029;-85
2023/10/25 20:06:45;;;;;;;22.13;8.00;;;;;;;;;;5080195;28;20072;-84
2023/10/25 20:09:11;;;;;;;101.18;52.38;;;;;;;;;;5064041;28;20028;-85
2023/10/25 20:11:36;;;;;;;24.85;6.10;;;;;;;;;;5060060;28;20017;-84
2023/10/25 20:14:01;;;;;;;21.45;5.43;;;;;;;;;;5062655;28;20047;-84
2023/10/25 20:16:29;;;;;;;219.68;97.82;;;;;;;;;;5064039;28;20024;-85
2023/10/25 20:18:55;;;;;;;20.13;6.30;;;;;;;;;;5061436;28;20391;-84
2023/10/25 20:21:21;;;;;;;29.75;8.95;;;;;;;;;;5062368;28;20148;-85
2023/10/25 20:23:46;;;;;;;24.45;6.15;;;;;;;;;;5060287;28;20035;-84
2023/10/25 20:26:12;;;;;;;457.60;196.95;;;;;;;;;;5062001;28;20398;-85
2023/10/25 20:28:37;;;;;;;18.50;6.65;;;;;;;;;;5065210;28;20021;-84
2023/10/25 20:31:03;;;;;;;16.42;5.03;;;;;;;;;;5079444;28;20024;-84
2023/10/25 20:33:29;;;;;;;18.33;5.15;;;;;;;;;;5068666;28;20017;-85
2023/10/25 20:36:00;;;;;;;64.43;21.08;;;;;;;;;;5067865;28;20021;-85
2023/10/25 20:38:26;;;;;;;113.55;20.67;;;;;;;;;;5068671;28;20031;-85
2023/10/25 20:40:53;;;;;;;63.55;17.10;;;;;;;;;;5064332;28;20116;-86
2023/10/25 20:43:18;;;;;;;124.20;58.72;;;;;;;;;;5055087;28;20102;-88
2023/10/25 20:45:49;;;;;;;30.75;8.45;;;;;;;;;;5050171;28;20060;-88
2023/10/25 20:48:15;;;;;;;36.97;10.70;;;;;;;;;;5051615;28;20017;-89
2023/10/25 20:50:40;;;;;;;141.05;41.50;;;;;;;;;;5064623;28;20017;-87
2023/10/25 20:53:05;;;;;;;175.65;50.85;;;;;;;;;;5078268;28;20020;-90
2023/10/25 20:55:31;;;;;;;49.70;15.45;;;;;;;;;;5075584;28;20028;-89
2023/10/25 20:57:56;;;;;;;29.13;7.13;;;;;;;;;;5055140;28;20033;-90
2023/10/25 21:00:21;;;;;;;21.88;5.32;;;;;;;;;;5088707;28;20032;-89
2023/10/25 21:02:50;;;;;;;17.08;4.40;;;;;;;;;;5095334;28;20044;-89
2023/10/25 21:05:15;;;;;;;20.83;4.45;;;;;;;;;;5073927;28;20037;-90
2023/10/25 21:07:41;;;;;;;15.70;4.28;;;;;;;;;;5068645;28;20438;-89
2023/10/25 21:10:07;;;;;;;63.63;32.08;;;;;;;;;;5055588;28;20456;-90
2023/10/25 21:12:32;;;;;;;56.95;31.33;;;;;;;;;;5070942;28;20054;-90
2023/10/25 21:14:58;;;;;;;22.42;7.00;;;;;;;;;;5074807;28;20019;-92
2023/10/25 21:17:24;;;;;;;29.63;8.43;;;;;;;;;;5074129;28;20028;-90
2023/10/25 21:19:49;;;;;;;31.15;11.07;;;;;;;;;;5071831;28;20025;-88
2023/10/25 21:22:17;;;;;;;33.50;10.02;;;;;;;;;;5073686;28;20044;-89
2023/10/25 21:24:43;;;;;;;46.67;13.70;;;;;;;;;;5072091;28;20035;-89
2023/10/25 21:27:09;;;;;;;38.58;15.38;;;;;;;;;;5069322;28;20032;-89
2023/10/25 21:29:39;;;;;;;25.77;8.52;;;;;;;;;;5060379;28;20033;-91
2023/10/25 21:32:06;;;;;;;23.02;7.47;;;;;;;;;;5072253;28;20036;-89
2023/10/25 21:34:31;;;;;;;21.20;5.25;;;;;;;;;;5074870;28;20024;-89
2023/10/25 21:36:56;;;;;;;20.80;6.15;;;;;;;;;;5072320;28;20025;-91
2023/10/25 21:39:22;;;;;;;28.05;11.60;;;;;;;;;;5055720;28;20628;-90
2023/10/25 21:41:48;;;;;;;13.57;3.90;;;;;;;;;;5083018;28;20004;-90
2023/10/25 21:44:14;;;;;;;22.55;5.30;;;;;;;;;;5084302;28;20043;-89
2023/10/25 21:46:42;;;;;;;17.15;6.20;;;;;;;;;;5085964;28;20028;-90
2023/10/25 21:49:09;;;;;;;20.45;5.07;;;;;;;;;;5084592;28;20104;-89
2023/10/25 21:51:35;;;;;;;23.33;6.07;;;;;;;;;;5081632;28;20051;-90
2023/10/25 21:54:00;;;;;;;19.90;4.90;;;;;;;;;;5081012;28;20025;-89
2023/10/25 21:56:25;;;;;;;16.70;4.78;;;;;;;;;;5065271;28;20082;-90
2023/10/25 21:59:00;;;;;;;17.75;5.07;;;;;;;;;;5066685;28;20021;-90
2023/10/25 22:01:28;;;;;;;18.90;5.50;;;;;;;;;;5069954;28;20117;-88
2023/10/25 22:03:55;;;;;;;15.63;5.05;;;;;;;;;;5064704;28;20021;-90
2023/10/25 22:06:20;;;;;;;17.67;4.65;;;;;;;;;;5062342;28;20049;-88
2023/10/25 22:08:50;;;;;;;21.15;6.78;;;;;;;;;;5071666;28;20088;-89
2023/10/25 22:11:17;;;;;;;22.77;6.40;;;;;;;;;;5081950;28;20031;-91
2023/10/25 22:13:42;;;;;;;19.42;4.68;;;;;;;;;;5081509;28;20031;-88
2023/10/25 22:16:08;;;;;;;23.00;5.25;;;;;;;;;;5079756;28;20021;-88
2023/10/25 22:18:34;;;;;;;13.52;3.97;;;;;;;;;;5078194;28;20596;-89
2023/10/25 22:20:59;;;;;;;17.48;4.25;;;;;;;;;;5079200;28;20020;-90
2023/10/25 22:23:24;;;;;;;21.70;5.25;;;;;;;;;;5075721;28;20024;-88
2023/10/25 22:25:50;;;;;;;15.85;3.72;;;;;;;;;;5077704;28;20070;-88
2023/10/25 22:28:17;;;;;;;15.50;4.90;;;;;;;;;;5075383;28;20042;-91
2023/10/25 22:30:42;;;;;;;12.57;4.03;;;;;;;;;;5080711;28;20020;-89
2023/10/25 22:33:08;;;;;;;16.23;4.22;;;;;;;;;;5078315;28;20028;-89
2023/10/25 22:35:34;;;;;;;11.75;3.50;;;;;;;;;;5066738;28;20029;-88
2023/10/25 22:37:59;;;;;;;14.57;4.72;;;;;;;;;;5053336;28;20013;-88
2023/10/25 22:40:25;;;;;;;23.00;9.73;;;;;;;;;;5071421;28;20409;-88
2023/10/25 22:42:51;;;;;;;15.75;7.13;;;;;;;;;;5082635;28;20032;-89
2023/10/25 22:45:16;;;;;;;18.17;8.30;;;;;;;;;;5078113;28;20324;-89
2023/10/25 22:47:42;;;;;;;15.00;6.80;;;;;;;;;;5075914;28;20023;-90
2023/10/25 22:50:08;;;;;;;10.20;4.40;;;;;;;;;;5069782;28;20028;-89
2023/10/25 22:52:34;;;;;;;13.27;5.78;;;;;;;;;;5056693;28;20037;-89
2023/10/25 22:55:00;;;;;;;16.27;6.45;;;;;;;;;;5056825;28;20017;-90
2023/10/25 22:57:26;;;;;;;12.68;4.68;;;;;;;;;;5062331;28;20017;-88
2023/10/25 22:59:51;;;;;;;9.50;2.80;;;;;;;;;;5061817;28;20025;-89
2023/10/25 23:02:17;;;;;;;12.73;3.55;;;;;;;;;;5078535;28;20020;-90
2023/10/25 23:04:42;;;;;;;12.75;2.90;;;;;;;;;;5081255;28;20059;-89
2023/10/25 23:07:09;;;;;;;9.88;3.08;;;;;;;;;;5077247;28;20052;-88
2023/10/25 23:09:34;;;;;;;11.27;3.15;;;;;;;;;;5079526;28;20039;-89
2023/10/25 23:12:00;;;;;;;12.95;3.38;;;;;;;;;;5071034;28;20013;-89
2023/10/25 23:14:25;;;;;;;11.93;3.38;;;;;;;;;;5051752;28;20021;-89
2023/10/25 23:16:50;;;;;;;11.27;3.30;;;;;;;;;;5049891;28;20540;-90
2023/10/25 23:19:16;;;;;;;12.05;3.22;;;;;;;;;;5053259;28;20021;-87
2023/10/25 23:21:43;;;;;;;11.02;3.75;;;;;;;;;;5055295;28;20047;-88
2023/10/25 23:24:08;;;;;;;14.98;3.50;;;;;;;;;;5070711;28;20024;-88
2023/10/25 23:26:36;;;;;;;10.10;3.10;;;;;;;;;;5071038;28;20047;-89
2023/10/25 23:29:01;;;;;;;11.25;2.75;;;;;;;;;;5075624;28;20107;-89
2023/10/25 23:31:27;;;;;;;11.38;3.17;;;;;;;;;;5073251;28;20481;-89
2023/10/25 23:33:53;;;;;;;11.52;4.05;;;;;;;;;;5053778;28;20420;-89
2023/10/25 23:36:18;;;;;;;12.20;2.95;;;;;;;;;;5072763;28;20020;-89
2023/10/25 23:38:44;;;;;;;11.90;3.13;;;;;;;;;;5069705;28;20354;-89
2023/10/25 23:41:09;;;;;;;10.38;2.83;;;;;;;;;;5071038;28;20627;-88
2023/10/25 23:43:35;;;;;;;9.35;2.55;;;;;;;;;;5066530;28;20040;-89
2023/10/25 23:46:01;;;;;;;12.02;3.00;;;;;;;;;;5051075;28;20021;-88
2023/10/25 23:48:26;;;;;;;10.90;2.85;;;;;;;;;;5059118;28;20074;-88
2023/10/25 23:50:52;;;;;;;9.27;2.70;;;;;;;;;;5057082;28;20081;-87
2023/10/25 23:53:17;;;;;;;12.98;3.28;;;;;;;;;;5074192;28;20104;-88
2023/10/25 23:55:43;;;;;;;11.05;2.65;;;;;;;;;;5074332;28;20390;-87
2023/10/25 23:58:08;;;;;;;8.50;2.33;;;;;;;;;;5073981;28;20054;-89
